KRNT - Renton, Washington, USA
Distance from station: W 21mi, 33km
Updated: Fri, 05-Mar-2021 2:53am PST

 Wind from varies
Wind: varies 5 mph , 7 km/h
Temperature: 45°F , 7°C
Wind Chill: 42°F , 6°C
Dew Point: 45°F , 7°C
Humidity: 100%
Barometer: 29.88 inHg , 1011.9 hPa
Visibility: 9 miles , 14 km
Cloud details: 11000 ft
2021/03/05 10:53 KRNT 051053Z AUTO VRB04KT 9SM OVC110 07/07 A2988 RMK AO2 SLP123 T00720067
KBFI - Seattle/Boeing, Washington, USA
Distance from station: W 25mi, 41km
Updated: Fri, 05-Mar-2021 2:53am PST

 Wind from varies
Wind: varies 3 mph , 6 km/h
Temperature: 45°F , 7°C
Dew Point: 43°F , 6°C
Humidity: 93%
Barometer: 29.88 inHg , 1011.9 hPa
Visibility: 10 miles , 16 km
Cloud details: 1000 ft
11000 ft
2021/03/05 10:53 KBFI 051053Z VRB03KT 10SM FEW010 OVC110 07/06 A2988 RMK AO2 SLP117 T00720061 $
 
KSEA - Seattle/Metro, Washington, USA
Distance from station: W 25mi, 41km
Updated: Fri, 05-Mar-2021 2:53am PST

 Wind from calm
Wind: Calm
Temperature: 46°F , 8°C
Dew Point: 45°F , 7°C
Humidity: 93%
Barometer: 29.88 inHg , 1011.9 hPa
Visibility: 10 miles , 16 km
Cloud details: 1000 ft
9000 ft
2021/03/05 10:53 KSEA 051053Z 00000KT 10SM FEW010 OVC090 08/07 A2988 RMK AO2 SLP125 T00780067
KSMP - Stampede Pass, Washington, USA
Distance from station: SE 26mi, 41km
Updated: Fri, 05-Mar-2021 2:56am PST

 
Temperature: 37°F , 3°C
Dew Point: 30°F , -1°C
Humidity: 75%
Barometer: 29.91 inHg , 1012.9 hPa
Visibility: 10 miles , 16 km
Cloud details: 9500 ft
2021/03/05 10:56 KSMP 051056Z AUTO 10SM OVC095 03/M01 A2991 RMK AO2 SLP133 T00331011
 
KPLU - Puyallup/Thun, Washington, USA
Distance from station: SW 36mi, 59km
Updated: Fri, 05-Mar-2021 2:55am PST

 Wind from calm
Wind: Calm
Temperature: 45°F , 7°C
Dew Point: 45°F , 7°C
Humidity: 100%
Barometer: 29.87 inHg , 1011.5 hPa
Visibility: 10 miles , 16 km
Cloud details: 500 ft
6500 ft
7500 ft
2021/03/05 10:55 KPLU 051055Z AUTO 00000KT 10SM FEW005 SCT065 BKN075 07/07 A2987 RMK AO2
KPAE - Everett, Washington, USA
Distance from station: NW 37mi, 60km
Updated: Fri, 05-Mar-2021 2:53am PST

 Wind from calm
Wind: Calm
Temperature: 46°F , 8°C
Dew Point: 39°F , 4°C
Humidity: 76%
Barometer: 29.85 inHg , 1010.8 hPa
Visibility: 10 miles , 16 km
Cloud details: 10000 ft
2021/03/05 10:53 KPAE 051053Z AUTO 00000KT 10SM BKN100 08/04 A2985 RMK AO2 SLP110 T00780044
 
KTIW - Tacoma, Washington, USA
Distance from station: WSW 41mi, 66km
Updated: Fri, 05-Mar-2021 2:53am PST

 Wind from varies
Wind: varies 3 mph , 6 km/h
Temperature: 45°F , 7°C
Dew Point: 43°F , 6°C
Humidity: 93%
Barometer: 29.86 inHg , 1011.2 hPa
Visibility: 10 miles , 16 km
Cloud details: 6000 ft
7000 ft
9000 ft
2021/03/05 10:53 KTIW 051053Z AUTO VRB03KT 10SM FEW060 SCT070 OVC090 07/06 A2986 RMK AO2 PRESFR SLP114 T00670056
KTCM - Tacoma/Mc Chord, Washington, USA
Distance from station: SW 42mi, 67km
Updated: Fri, 05-Mar-2021 2:58am PST

 Wind from calm
Wind: Calm
Temperature: 45°F , 7°C
Dew Point: 45°F , 7°C
Humidity: 100%
Barometer: 29.87 inHg , 1011.5 hPa
Visibility: 10 miles , 16 km
Cloud details: 10000 ft
2021/03/05 10:58 KTCM 051058Z AUTO 00000KT 10SM FEW100 07/07 A2987 RMK AO2 SLP120 T00700067 $
 
KPWT - Bremerton Ntnl, Washington, USA
Distance from station: W 45mi, 73km
Updated: Fri, 05-Mar-2021 2:56am PST
Light rain, Few clouds
Light rain, Few clouds
 Wind from varies
Wind: varies 3 mph , 6 km/h
Temperature: 45°F , 7°C
Dew Point: 45°F , 7°C
Humidity: 100%
Barometer: 29.89 inHg , 1012.2 hPa
Visibility: 10 miles , 16 km
Cloud details: 6000 ft
2021/03/05 10:56 KPWT 051056Z AUTO VRB03KT 10SM -RA FEW060 07/07 A2989 RMK AO2 RAB53 SLP126 P0000 T00670067
KGRF - Fort Lewis/Gray, Washington, USA
Distance from station: SW 48mi, 77km
Updated: Fri, 05-Mar-2021 2:58am PST

 Wind from SSW
Wind: SSW 5 mph , 7 km/h
Temperature: 45°F , 7°C
Wind Chill: 42°F , 6°C
Dew Point: 45°F , 7°C
Humidity: 100%
Barometer: 29.87 inHg , 1011.5 hPa
Visibility: 10 miles , 16 km
Cloud details: 400 ft
2021/03/05 10:58 KGRF 051058Z AUTO 21004KT 10SM SCT004 07/07 A2987 RMK AO2 RAB32E44 SLP120 P0000 T00720072 $
 
KAWO - Arlington Muni, Washington, USA
Distance from station: NNW 50mi, 80km
Updated: Fri, 05-Mar-2021 2:56am PST

 Wind from NNW
Wind: NNW 3 mph , 6 km/h
Temperature: 43°F , 6°C
Dew Point: 43°F , 6°C
Humidity: 100%
Barometer: 29.86 inHg , 1011.2 hPa
Visibility: 10 miles , 16 km
Cloud details: 11000 ft
2021/03/05 10:56 KAWO 051056Z AUTO 33003KT 10SM BKN110 06/06 A2986 RMK AO2 SLP117 T00610056